createdAt,value
2019-02-17T00:00:34.468Z,99.90
2019-02-17T00:03:03.356Z,99.90
2019-02-17T00:05:32.297Z,99.90
2019-02-17T00:08:01.108Z,99.90
2019-02-17T00:10:30.142Z,99.90
2019-02-17T00:12:59.035Z,99.90
2019-02-17T00:15:27.817Z,99.90
2019-02-17T00:17:56.714Z,99.90
2019-02-17T00:20:25.509Z,99.90
2019-02-17T00:22:54.558Z,99.90
2019-02-17T00:25:23.349Z,99.90
2019-02-17T00:27:52.439Z,99.90
2019-02-17T00:30:21.232Z,99.90
2019-02-17T00:32:50.109Z,99.90
2019-02-17T00:35:19.000Z,99.90
2019-02-17T00:37:48.158Z,99.90
2019-02-17T00:40:17.216Z,99.90
2019-02-17T00:42:45.999Z,99.90
2019-02-17T00:45:14.801Z,99.90
2019-02-17T00:47:43.664Z,99.90
2019-02-17T00:50:12.635Z,99.90
2019-02-17T00:52:41.796Z,99.90
2019-02-17T00:55:10.951Z,99.90
2019-02-17T00:57:40.065Z,99.90
2019-02-17T01:00:09.568Z,99.90
2019-02-17T01:02:38.440Z,99.90
2019-02-17T01:05:07.418Z,99.90
2019-02-17T01:07:36.205Z,99.90
2019-02-17T01:10:05.440Z,99.90
2019-02-17T01:12:34.858Z,99.90
2019-02-17T01:15:03.812Z,99.90
2019-02-17T01:17:32.688Z,99.90
2019-02-17T01:20:01.559Z,99.90
2019-02-17T01:22:30.366Z,99.90
2019-02-17T01:24:59.237Z,99.90
2019-02-17T01:27:28.377Z,99.90
2019-02-17T01:29:57.183Z,99.90
2019-02-17T01:32:25.977Z,99.90
2019-02-17T01:34:54.761Z,99.90
2019-02-17T01:37:23.688Z,99.90
2019-02-17T01:39:53.348Z,99.90
2019-02-17T01:42:22.568Z,99.90
2019-02-17T01:44:51.464Z,99.90
2019-02-17T01:47:20.416Z,99.90
2019-02-17T01:49:49.642Z,99.90
2019-02-17T01:52:18.606Z,99.90
2019-02-17T01:54:47.403Z,99.90
2019-02-17T01:57:16.215Z,99.90
2019-02-17T01:59:45.005Z,99.90
2019-02-17T02:02:13.823Z,99.90
2019-02-17T02:04:42.692Z,99.90
2019-02-17T02:07:11.803Z,99.90
2019-02-17T02:09:40.643Z,99.90
2019-02-17T02:12:09.469Z,99.90
2019-02-17T02:14:38.518Z,99.90
2019-02-17T02:17:07.471Z,99.90
2019-02-17T02:19:36.961Z,99.90
2019-02-17T02:22:06.006Z,99.90
2019-02-17T02:24:34.860Z,99.90
2019-02-17T02:27:03.733Z,99.90
2019-02-17T02:29:40.771Z,99.90
2019-02-17T02:32:03.499Z,99.90
2019-02-17T02:34:32.309Z,99.90
2019-02-17T02:37:01.122Z,99.90
2019-02-17T02:39:30.165Z,99.90
2019-02-17T02:41:59.010Z,99.90
2019-02-17T02:44:27.827Z,99.90
2019-02-17T02:46:56.709Z,99.90
2019-02-17T02:49:25.585Z,99.90
2019-02-17T02:51:54.401Z,99.90
2019-02-17T02:54:23.272Z,99.90
2019-02-17T02:56:52.140Z,99.90
2019-02-17T02:59:21.125Z,99.90
2019-02-17T03:01:49.921Z,99.90
2019-02-17T03:04:18.814Z,99.90
2019-02-17T03:06:50.679Z,99.90
2019-02-17T03:09:19.814Z,99.90
2019-02-17T03:11:48.600Z,99.90
2019-02-17T03:14:17.575Z,99.90
2019-02-17T03:16:46.529Z,99.90
2019-02-17T03:19:15.438Z,99.90
2019-02-17T03:21:44.330Z,99.90
2019-02-17T03:24:13.235Z,99.90
2019-02-17T03:26:42.089Z,99.90
2019-02-17T03:29:11.017Z,99.90
2019-02-17T03:31:39.830Z,99.90
2019-02-17T03:34:08.649Z,99.90
2019-02-17T03:36:37.691Z,99.90
2019-02-17T03:39:07.128Z,99.90
2019-02-17T03:41:35.984Z,99.90
2019-02-17T03:44:04.927Z,99.90
2019-02-17T03:46:33.789Z,99.90
2019-02-17T03:49:02.573Z,99.90
2019-02-17T03:51:31.397Z,99.90
2019-02-17T03:54:00.186Z,99.90
2019-02-17T03:56:28.977Z,99.90
2019-02-17T03:58:58.117Z,99.90
2019-02-17T04:01:27.009Z,99.90
2019-02-17T04:03:56.186Z,99.90
2019-02-17T04:06:25.056Z,99.90
2019-02-17T04:08:54.004Z,99.90
2019-02-17T04:11:22.892Z,99.90
2019-02-17T04:13:51.694Z,99.90
2019-02-17T04:16:20.566Z,99.90
2019-02-17T04:18:49.693Z,99.90
2019-02-17T04:21:18.472Z,99.90
2019-02-17T04:23:47.333Z,99.90
2019-02-17T04:26:16.178Z,99.90
2019-02-17T04:28:45.001Z,99.90
2019-02-17T04:31:13.792Z,99.90
2019-02-17T04:33:42.837Z,99.90
2019-02-17T04:36:11.644Z,99.90
2019-02-17T04:38:40.428Z,99.90
2019-02-17T04:41:09.282Z,99.90
2019-02-17T04:43:38.088Z,99.90
2019-02-17T04:46:06.912Z,99.90
2019-02-17T04:48:35.941Z,99.90
2019-02-17T04:51:04.802Z,99.90
2019-02-17T04:53:34.158Z,99.90
2019-02-17T04:56:03.400Z,99.90
2019-02-17T04:58:32.571Z,99.90
2019-02-17T05:01:01.481Z,99.90
2019-02-17T05:03:30.651Z,99.90
2019-02-17T05:05:59.585Z,99.90
2019-02-17T05:08:28.377Z,99.90
2019-02-17T05:10:57.188Z,99.90
2019-02-17T05:13:25.985Z,99.90
2019-02-17T05:15:54.820Z,99.90
2019-02-17T05:18:23.589Z,99.90
2019-02-17T05:20:52.418Z,99.90
2019-02-17T05:23:21.229Z,99.90
2019-02-17T05:25:50.157Z,99.90
2019-02-17T05:28:18.973Z,99.90
2019-02-17T05:30:52.819Z,99.90
2019-02-17T05:33:18.433Z,99.90
2019-02-17T05:35:47.264Z,99.90
2019-02-17T05:38:16.311Z,99.90
2019-02-17T05:40:45.159Z,99.90
2019-02-17T05:43:13.948Z,99.90
2019-02-17T05:45:42.744Z,99.90
2019-02-17T05:48:11.909Z,99.90
2019-02-17T05:50:40.711Z,99.90
2019-02-17T05:53:09.513Z,99.90
2019-02-17T05:55:38.557Z,99.90
2019-02-17T05:58:07.341Z,99.90
2019-02-17T06:00:37.939Z,99.90
2019-02-17T06:03:06.768Z,99.90
2019-02-17T06:05:35.620Z,99.90
2019-02-17T06:08:04.561Z,99.90
2019-02-17T06:10:33.357Z,99.90
2019-02-17T06:13:02.189Z,99.90
2019-02-17T06:15:30.962Z,99.90
2019-02-17T06:17:59.845Z,99.90
2019-02-17T06:20:28.641Z,99.90
2019-02-17T06:22:57.429Z,99.90
2019-02-17T06:25:26.249Z,99.90
2019-02-17T06:27:55.324Z,99.90
2019-02-17T06:30:24.193Z,99.90
2019-02-17T06:32:53.077Z,99.90
2019-02-17T06:35:21.951Z,99.90
2019-02-17T06:37:50.776Z,99.90
2019-02-17T06:40:19.824Z,99.90
2019-02-17T06:42:48.849Z,99.90
2019-02-17T06:45:19.655Z,99.90
2019-02-17T06:47:48.308Z,99.90
2019-02-17T06:50:17.095Z,99.90
2019-02-17T06:52:45.947Z,99.90
2019-02-17T06:55:22.984Z,99.90
2019-02-17T06:57:51.811Z,99.90
2019-02-17T07:00:25.021Z,99.90
2019-02-17T07:02:53.842Z,99.90
2019-02-17T07:05:34.261Z,99.90
2019-02-17T07:08:03.183Z,99.90
2019-02-17T07:10:31.952Z,99.90
2019-02-17T07:13:00.868Z,99.90
2019-02-17T07:15:29.645Z,99.90
2019-02-17T07:17:59.288Z,99.90
2019-02-17T07:20:28.149Z,99.90
2019-02-17T07:22:57.016Z,99.90
2019-02-17T07:25:30.168Z,99.90
2019-02-17T07:27:56.542Z,99.90
2019-02-17T07:30:25.377Z,99.90
2019-02-17T07:32:54.153Z,99.90
2019-02-17T07:35:23.460Z,99.90
2019-02-17T07:37:52.292Z,99.90
2019-02-17T07:40:21.368Z,99.90
2019-02-17T07:42:50.217Z,99.90
2019-02-17T07:45:19.084Z,99.90
2019-02-17T07:47:48.115Z,99.90
2019-02-17T07:50:16.912Z,99.90
2019-02-17T07:52:45.684Z,99.90
2019-02-17T07:55:14.523Z,99.90
2019-02-17T07:57:43.324Z,99.90
2019-02-17T08:00:12.364Z,99.90
2019-02-17T08:02:41.294Z,99.90
2019-02-17T08:05:10.386Z,99.90
2019-02-17T08:07:39.849Z,99.20
2019-02-17T08:10:08.944Z,98.50
2019-02-17T08:12:37.808Z,98.10
2019-02-17T08:15:07.489Z,97.90
2019-02-17T08:17:36.767Z,96.30
2019-02-17T08:20:06.825Z,95.40
2019-02-17T08:22:35.607Z,94.60
2019-02-17T08:25:04.563Z,94.00
2019-02-17T08:27:33.417Z,93.20
2019-02-17T08:30:02.237Z,92.40
2019-02-17T08:32:31.291Z,91.30
2019-02-17T08:35:00.161Z,91.20
2019-02-17T08:37:29.176Z,90.80
2019-02-17T08:39:57.988Z,90.60
2019-02-17T08:42:26.745Z,91.70
2019-02-17T08:44:55.613Z,91.40
2019-02-17T08:47:24.412Z,84.20
2019-02-17T08:49:53.260Z,83.50
2019-02-17T08:52:22.183Z,85.40
2019-02-17T08:54:51.045Z,84.60
2019-02-17T08:57:20.136Z,84.30
2019-02-17T08:59:49.409Z,84.00
2019-02-17T09:02:18.237Z,83.10
2019-02-17T09:04:47.036Z,81.20
2019-02-17T09:07:15.908Z,79.80
2019-02-17T09:09:44.778Z,82.80
2019-02-17T09:12:13.941Z,82.40
2019-02-17T09:14:42.723Z,79.30
2019-02-17T09:17:11.544Z,79.40
2019-02-17T09:19:40.350Z,80.80
2019-02-17T09:22:09.514Z,82.90
2019-02-17T09:24:38.372Z,82.10
2019-02-17T09:27:07.407Z,81.40
2019-02-17T09:29:36.196Z,82.10
2019-02-17T09:32:05.022Z,78.40
2019-02-17T09:34:33.788Z,79.50
2019-02-17T09:37:02.578Z,81.20
2019-02-17T09:39:31.639Z,80.20
2019-02-17T09:42:00.420Z,81.20
2019-02-17T09:44:29.225Z,80.20
2019-02-17T09:46:58.092Z,82.30
2019-02-17T09:49:27.121Z,79.80
2019-02-17T09:51:56.000Z,76.90
2019-02-17T09:54:24.954Z,75.40
2019-02-17T09:56:55.040Z,74.60
2019-02-17T09:59:23.859Z,75.20
2019-02-17T10:01:52.968Z,75.50
2019-02-17T10:04:21.884Z,75.10
2019-02-17T10:06:50.677Z,73.70
2019-02-17T10:09:19.460Z,72.70
2019-02-17T10:11:48.241Z,71.90
2019-02-17T10:14:17.024Z,70.80
2019-02-17T10:16:45.877Z,69.60
2019-02-17T10:19:14.718Z,71.10
2019-02-17T10:21:43.577Z,70.20
2019-02-17T10:24:12.665Z,69.50
2019-02-17T10:26:41.478Z,68.50
2019-02-17T10:29:10.267Z,68.20
2019-02-17T10:31:39.056Z,67.50
2019-02-17T10:34:07.939Z,68.20
2019-02-17T10:36:36.845Z,67.50
2019-02-17T10:39:06.495Z,66.20
2019-02-17T10:41:35.279Z,66.90
2019-02-17T10:44:04.402Z,69.20
2019-02-17T10:46:33.284Z,70.30
2019-02-17T10:49:02.175Z,68.30
2019-02-17T10:51:31.138Z,67.00
2019-02-17T10:53:59.957Z,67.50
2019-02-17T10:56:28.828Z,67.30
2019-02-17T10:58:57.740Z,64.60
2019-02-17T11:01:26.733Z,64.20
2019-02-17T11:04:21.137Z,63.90
2019-02-17T11:06:50.043Z,61.80
2019-02-17T11:09:24.737Z,61.60
2019-02-17T11:11:53.744Z,61.50
2019-02-17T11:14:22.889Z,62.00
2019-02-17T11:16:52.489Z,64.10
2019-02-17T11:19:21.333Z,62.20
2019-02-17T11:21:50.531Z,61.20
2019-02-17T11:24:19.509Z,61.70
2019-02-17T11:26:48.327Z,62.40
2019-02-17T11:29:17.347Z,61.90
2019-02-17T11:31:46.201Z,62.90
2019-02-17T11:34:15.020Z,60.00
2019-02-17T11:36:43.950Z,58.90
2019-02-17T11:39:19.912Z,59.20
2019-02-17T11:41:48.861Z,58.30
2019-02-17T11:44:17.797Z,58.70
2019-02-17T11:46:46.861Z,59.10
2019-02-17T11:49:15.852Z,58.70
2019-02-17T11:51:44.904Z,57.30
2019-02-17T11:54:13.681Z,55.90
2019-02-17T11:56:42.458Z,56.40
2019-02-17T11:59:11.240Z,56.50
2019-02-17T12:01:40.165Z,56.70
2019-02-17T12:04:09.236Z,54.80
2019-02-17T12:06:38.102Z,53.50
2019-02-17T12:09:08.263Z,52.20
2019-02-17T12:11:37.393Z,52.70
2019-02-17T12:14:06.202Z,51.90
2019-02-17T12:16:37.262Z,51.10
2019-02-17T12:19:05.638Z,50.40
2019-02-17T12:21:42.513Z,47.90
2019-02-17T12:24:33.573Z,47.30
2019-02-17T12:27:09.870Z,47.30
2019-02-17T12:29:44.405Z,46.20
2019-02-17T12:32:13.277Z,46.50
2019-02-17T12:34:42.071Z,44.90
2019-02-17T12:37:10.947Z,45.50
2019-02-17T12:39:39.748Z,44.90
2019-02-17T12:42:08.614Z,45.10
2019-02-17T12:44:37.489Z,45.20
2019-02-17T12:47:06.369Z,44.60
2019-02-17T12:49:35.242Z,43.40
2019-02-17T12:52:04.131Z,44.10
2019-02-17T12:54:32.965Z,43.50
2019-02-17T12:57:01.859Z,42.00
2019-02-17T12:59:30.672Z,42.70
2019-02-17T13:01:59.469Z,42.20
2019-02-17T13:04:28.394Z,42.10
2019-02-17T13:06:57.185Z,42.30
2019-02-17T13:09:26.001Z,41.30
2019-02-17T13:11:55.026Z,40.70
2019-02-17T13:14:23.829Z,40.70
2019-02-17T13:16:53.015Z,41.70
2019-02-17T13:19:21.884Z,40.80
2019-02-17T13:21:50.764Z,39.60
2019-02-17T13:24:19.577Z,40.30
2019-02-17T13:26:48.637Z,40.30
2019-02-17T13:29:17.509Z,40.60
2019-02-17T13:31:46.292Z,39.80
2019-02-17T13:34:15.392Z,38.80
2019-02-17T13:36:44.324Z,38.70
2019-02-17T13:39:13.134Z,38.90
2019-02-17T13:41:42.001Z,39.40
2019-02-17T13:44:10.796Z,39.40
2019-02-17T13:46:39.713Z,38.80
2019-02-17T13:49:08.512Z,37.80
2019-02-17T13:51:37.309Z,37.70
2019-02-17T13:54:06.125Z,36.70
2019-02-17T13:56:34.914Z,36.90
2019-02-17T13:59:03.976Z,35.20
2019-02-17T14:01:32.780Z,35.20
2019-02-17T14:04:01.633Z,34.10
2019-02-17T14:06:30.470Z,32.40
2019-02-17T14:08:59.522Z,33.20
2019-02-17T14:11:28.296Z,33.10
2019-02-17T14:13:57.383Z,31.20
2019-02-17T14:16:26.300Z,32.10
2019-02-17T14:18:55.166Z,32.10
2019-02-17T14:21:24.073Z,33.20
2019-02-17T14:23:53.055Z,33.70
2019-02-17T14:26:22.069Z,32.70
2019-02-17T14:28:50.932Z,30.80
2019-02-17T14:31:19.722Z,31.80
2019-02-17T14:33:58.095Z,31.70
2019-02-17T14:36:19.036Z,31.40
2019-02-17T14:38:48.012Z,30.20
2019-02-17T14:41:16.887Z,32.00
2019-02-17T14:43:46.145Z,30.90
2019-02-17T14:46:15.195Z,31.50
2019-02-17T14:48:44.346Z,29.80
2019-02-17T14:51:13.457Z,29.50
2019-02-17T14:53:42.524Z,29.60
2019-02-17T14:56:11.666Z,28.80
2019-02-17T14:58:40.455Z,29.40
2019-02-17T15:01:09.507Z,29.10
2019-02-17T15:03:38.301Z,29.10
2019-02-17T15:06:07.363Z,29.90
2019-02-17T15:08:36.193Z,29.80
2019-02-17T15:11:05.398Z,30.00
2019-02-17T15:13:34.550Z,28.70
2019-02-17T15:16:03.526Z,29.40
2019-02-17T15:18:32.342Z,30.70
2019-02-17T15:21:01.485Z,30.60
2019-02-17T15:23:30.568Z,30.00
2019-02-17T15:25:59.629Z,30.10
2019-02-17T15:28:28.746Z,30.00
2019-02-17T15:30:57.581Z,29.10
2019-02-17T15:33:26.633Z,29.70
2019-02-17T15:35:55.553Z,31.40
2019-02-17T15:38:24.362Z,32.40
2019-02-17T15:40:53.151Z,32.60
2019-02-17T15:43:21.953Z,32.80
2019-02-17T15:45:50.748Z,32.90
2019-02-17T15:48:19.551Z,33.50
2019-02-17T15:50:48.849Z,33.50
2019-02-17T15:53:18.180Z,34.70
2019-02-17T15:55:47.076Z,33.30
